sensor_id;sensor_type;location;lat;lon;timestamp;P1;durP1;ratioP1;P2;durP2;ratioP2
71475;SDS011;59286;59.274;17.974;2022-07-06T00:01:36;3.30;;;0.90;;
71475;SDS011;59286;59.274;17.974;2022-07-06T00:04:02;3.42;;;0.55;;
71475;SDS011;59286;59.274;17.974;2022-07-06T00:06:28;3.13;;;0.68;;
71475;SDS011;59286;59.274;17.974;2022-07-06T00:08:54;3.47;;;0.60;;
71475;SDS011;59286;59.274;17.974;2022-07-06T00:11:19;2.97;;;0.68;;
71475;SDS011;59286;59.274;17.974;2022-07-06T00:13:45;3.17;;;0.77;;
71475;SDS011;59286;59.274;17.974;2022-07-06T00:16:10;5.50;;;0.80;;
71475;SDS011;59286;59.274;17.974;2022-07-06T00:18:36;5.88;;;0.82;;
71475;SDS011;59286;59.274;17.974;2022-07-06T00:21:01;1.83;;;0.57;;
71475;SDS011;59286;59.274;17.974;2022-07-06T00:23:27;4.45;;;0.80;;
71475;SDS011;59286;59.274;17.974;2022-07-06T00:25:53;2.03;;;0.50;;
71475;SDS011;59286;59.274;17.974;2022-07-06T00:28:18;4.03;;;0.90;;
71475;SDS011;59286;59.274;17.974;2022-07-06T00:30:43;5.82;;;0.50;;
71475;SDS011;59286;59.274;17.974;2022-07-06T00:33:09;6.18;;;0.70;;
71475;SDS011;59286;59.274;17.974;2022-07-06T00:35:34;3.47;;;0.60;;
71475;SDS011;59286;59.274;17.974;2022-07-06T00:38:00;4.40;;;0.80;;
71475;SDS011;59286;59.274;17.974;2022-07-06T00:40:26;4.95;;;0.68;;
71475;SDS011;59286;59.274;17.974;2022-07-06T00:42:54;5.55;;;0.80;;
71475;SDS011;59286;59.274;17.974;2022-07-06T00:45:20;2.83;;;0.75;;
71475;SDS011;59286;59.274;17.974;2022-07-06T00:47:46;8.10;;;0.80;;
71475;SDS011;59286;59.274;17.974;2022-07-06T00:50:12;2.88;;;0.50;;
71475;SDS011;59286;59.274;17.974;2022-07-06T00:52:44;4.85;;;0.68;;
71475;SDS011;59286;59.274;17.974;2022-07-06T00:55:11;4.85;;;0.60;;
71475;SDS011;59286;59.274;17.974;2022-07-06T00:57:37;1.92;;;0.55;;
71475;SDS011;59286;59.274;17.974;2022-07-06T01:00:05;4.97;;;0.52;;
71475;SDS011;59286;59.274;17.974;2022-07-06T01:02:35;5.15;;;0.77;;
71475;SDS011;59286;59.274;17.974;2022-07-06T01:05:01;4.25;;;1.33;;
71475;SDS011;59286;59.274;17.974;2022-07-06T01:07:29;2.50;;;0.70;;
71475;SDS011;59286;59.274;17.974;2022-07-06T01:09:55;2.78;;;0.70;;
71475;SDS011;59286;59.274;17.974;2022-07-06T01:12:20;3.42;;;0.60;;
71475;SDS011;59286;59.274;17.974;2022-07-06T01:14:46;3.72;;;0.80;;
71475;SDS011;59286;59.274;17.974;2022-07-06T01:17:13;3.10;;;0.80;;
71475;SDS011;59286;59.274;17.974;2022-07-06T01:19:39;3.03;;;0.90;;
71475;SDS011;59286;59.274;17.974;2022-07-06T01:22:04;1.67;;;0.60;;
71475;SDS011;59286;59.274;17.974;2022-07-06T01:24:30;5.68;;;1.30;;
71475;SDS011;59286;59.274;17.974;2022-07-06T01:26:55;6.43;;;1.20;;
71475;SDS011;59286;59.274;17.974;2022-07-06T01:29:20;3.85;;;1.15;;
71475;SDS011;59286;59.274;17.974;2022-07-06T01:31:46;5.43;;;1.38;;
71475;SDS011;59286;59.274;17.974;2022-07-06T01:34:16;2.97;;;1.30;;
71475;SDS011;59286;59.274;17.974;2022-07-06T01:36:43;4.68;;;1.40;;
71475;SDS011;59286;59.274;17.974;2022-07-06T01:39:09;7.45;;;1.60;;
71475;SDS011;59286;59.274;17.974;2022-07-06T01:41:35;4.25;;;1.40;;
71475;SDS011;59286;59.274;17.974;2022-07-06T01:44:01;3.25;;;1.30;;
71475;SDS011;59286;59.274;17.974;2022-07-06T01:46:26;5.03;;;1.13;;
71475;SDS011;59286;59.274;17.974;2022-07-06T01:48:52;4.65;;;1.20;;
71475;SDS011;59286;59.274;17.974;2022-07-06T01:51:17;3.47;;;1.40;;
71475;SDS011;59286;59.274;17.974;2022-07-06T01:53:43;6.35;;;1.50;;
71475;SDS011;59286;59.274;17.974;2022-07-06T01:56:09;8.60;;;1.55;;
71475;SDS011;59286;59.274;17.974;2022-07-06T01:58:35;3.38;;;1.60;;
71475;SDS011;59286;59.274;17.974;2022-07-06T02:01:05;7.05;;;1.90;;
71475;SDS011;59286;59.274;17.974;2022-07-06T02:03:32;4.63;;;1.80;;
71475;SDS011;59286;59.274;17.974;2022-07-06T02:05:57;4.75;;;1.73;;
71475;SDS011;59286;59.274;17.974;2022-07-06T02:08:23;8.63;;;2.38;;
71475;SDS011;59286;59.274;17.974;2022-07-06T02:10:48;5.72;;;1.92;;
71475;SDS011;59286;59.274;17.974;2022-07-06T02:13:13;4.43;;;1.80;;
71475;SDS011;59286;59.274;17.974;2022-07-06T02:15:39;4.53;;;1.73;;
71475;SDS011;59286;59.274;17.974;2022-07-06T02:18:04;4.60;;;1.80;;
71475;SDS011;59286;59.274;17.974;2022-07-06T02:20:29;7.72;;;1.80;;
71475;SDS011;59286;59.274;17.974;2022-07-06T02:22:55;5.43;;;1.60;;
71475;SDS011;59286;59.274;17.974;2022-07-06T02:25:21;7.32;;;1.77;;
71475;SDS011;59286;59.274;17.974;2022-07-06T02:27:46;5.05;;;1.50;;
71475;SDS011;59286;59.274;17.974;2022-07-06T02:30:12;6.43;;;1.60;;
71475;SDS011;59286;59.274;17.974;2022-07-06T02:32:37;3.38;;;1.33;;
71475;SDS011;59286;59.274;17.974;2022-07-06T02:35:02;9.13;;;1.60;;
71475;SDS011;59286;59.274;17.974;2022-07-06T02:37:28;4.50;;;1.30;;
71475;SDS011;59286;59.274;17.974;2022-07-06T02:39:53;4.13;;;1.25;;
71475;SDS011;59286;59.274;17.974;2022-07-06T02:42:19;5.55;;;1.30;;
71475;SDS011;59286;59.274;17.974;2022-07-06T02:44:44;3.75;;;1.30;;
71475;SDS011;59286;59.274;17.974;2022-07-06T02:47:09;4.32;;;1.42;;
71475;SDS011;59286;59.274;17.974;2022-07-06T02:49:35;5.15;;;1.00;;
71475;SDS011;59286;59.274;17.974;2022-07-06T02:52:00;4.47;;;1.30;;
71475;SDS011;59286;59.274;17.974;2022-07-06T02:54:25;5.43;;;1.02;;
71475;SDS011;59286;59.274;17.974;2022-07-06T02:56:51;5.65;;;1.10;;
71475;SDS011;59286;59.274;17.974;2022-07-06T02:59:18;6.03;;;1.10;;
71475;SDS011;59286;59.274;17.974;2022-07-06T03:01:44;3.13;;;1.05;;
71475;SDS011;59286;59.274;17.974;2022-07-06T03:04:10;3.53;;;0.90;;
71475;SDS011;59286;59.274;17.974;2022-07-06T03:06:35;3.33;;;1.00;;
71475;SDS011;59286;59.274;17.974;2022-07-06T03:09:01;3.20;;;0.80;;
71475;SDS011;59286;59.274;17.974;2022-07-06T03:11:27;4.03;;;1.00;;
71475;SDS011;59286;59.274;17.974;2022-07-06T03:13:53;5.78;;;1.08;;
71475;SDS011;59286;59.274;17.974;2022-07-06T03:16:18;2.92;;;1.08;;
71475;SDS011;59286;59.274;17.974;2022-07-06T03:18:43;4.40;;;0.80;;
71475;SDS011;59286;59.274;17.974;2022-07-06T03:21:09;4.47;;;0.77;;
71475;SDS011;59286;59.274;17.974;2022-07-06T03:23:34;3.22;;;0.88;;
71475;SDS011;59286;59.274;17.974;2022-07-06T03:25:59;3.10;;;0.73;;
71475;SDS011;59286;59.274;17.974;2022-07-06T03:28:25;4.47;;;0.95;;
71475;SDS011;59286;59.274;17.974;2022-07-06T03:30:50;7.30;;;1.10;;
71475;SDS011;59286;59.274;17.974;2022-07-06T03:33:16;3.63;;;0.90;;
71475;SDS011;59286;59.274;17.974;2022-07-06T03:35:41;3.38;;;0.93;;
71475;SDS011;59286;59.274;17.974;2022-07-06T03:38:07;3.45;;;0.93;;
71475;SDS011;59286;59.274;17.974;2022-07-06T03:40:33;5.47;;;1.23;;
71475;SDS011;59286;59.274;17.974;2022-07-06T03:42:58;11.38;;;2.20;;
71475;SDS011;59286;59.274;17.974;2022-07-06T03:45:24;4.28;;;0.90;;
71475;SDS011;59286;59.274;17.974;2022-07-06T03:47:50;4.97;;;1.10;;
71475;SDS011;59286;59.274;17.974;2022-07-06T03:50:15;5.85;;;1.25;;
71475;SDS011;59286;59.274;17.974;2022-07-06T03:52:40;4.55;;;1.25;;
71475;SDS011;59286;59.274;17.974;2022-07-06T03:55:07;5.63;;;1.10;;
71475;SDS011;59286;59.274;17.974;2022-07-06T03:57:37;6.00;;;1.38;;
71475;SDS011;59286;59.274;17.974;2022-07-06T04:00:06;3.80;;;1.00;;
71475;SDS011;59286;59.274;17.974;2022-07-06T04:02:32;5.20;;;0.93;;
71475;SDS011;59286;59.274;17.974;2022-07-06T04:04:58;5.97;;;1.15;;
71475;SDS011;59286;59.274;17.974;2022-07-06T04:07:24;5.50;;;1.20;;
71475;SDS011;59286;59.274;17.974;2022-07-06T04:09:50;2.85;;;0.90;;
71475;SDS011;59286;59.274;17.974;2022-07-06T04:12:15;4.55;;;1.10;;
71475;SDS011;59286;59.274;17.974;2022-07-06T04:14:40;3.55;;;0.90;;
71475;SDS011;59286;59.274;17.974;2022-07-06T04:17:06;5.78;;;0.93;;
71475;SDS011;59286;59.274;17.974;2022-07-06T04:19:50;9.52;;;1.20;;
71475;SDS011;59286;59.274;17.974;2022-07-06T04:22:15;4.05;;;0.90;;
71475;SDS011;59286;59.274;17.974;2022-07-06T04:24:41;6.07;;;1.27;;
71475;SDS011;59286;59.274;17.974;2022-07-06T04:27:06;3.20;;;0.70;;
71475;SDS011;59286;59.274;17.974;2022-07-06T04:29:32;3.28;;;1.10;;
71475;SDS011;59286;59.274;17.974;2022-07-06T04:31:58;4.20;;;1.10;;
71475;SDS011;59286;59.274;17.974;2022-07-06T04:34:23;3.17;;;0.77;;
71475;SDS011;59286;59.274;17.974;2022-07-06T04:36:48;5.88;;;1.00;;
71475;SDS011;59286;59.274;17.974;2022-07-06T04:39:14;3.97;;;0.80;;
71475;SDS011;59286;59.274;17.974;2022-07-06T04:41:39;9.43;;;1.13;;
71475;SDS011;59286;59.274;17.974;2022-07-06T04:44:04;5.32;;;0.95;;
71475;SDS011;59286;59.274;17.974;2022-07-06T04:46:30;2.70;;;0.75;;
71475;SDS011;59286;59.274;17.974;2022-07-06T04:48:55;4.78;;;0.82;;
71475;SDS011;59286;59.274;17.974;2022-07-06T04:51:21;5.63;;;0.70;;
71475;SDS011;59286;59.274;17.974;2022-07-06T04:53:46;4.35;;;0.93;;
71475;SDS011;59286;59.274;17.974;2022-07-06T04:56:12;4.80;;;0.80;;
71475;SDS011;59286;59.274;17.974;2022-07-06T04:58:37;5.97;;;1.15;;
71475;SDS011;59286;59.274;17.974;2022-07-06T05:01:03;6.40;;;1.08;;
71475;SDS011;59286;59.274;17.974;2022-07-06T05:03:28;4.40;;;0.93;;
71475;SDS011;59286;59.274;17.974;2022-07-06T05:05:54;7.70;;;1.00;;
71475;SDS011;59286;59.274;17.974;2022-07-06T05:08:19;1.83;;;0.70;;
71475;SDS011;59286;59.274;17.974;2022-07-06T05:10:45;5.72;;;0.90;;
71475;SDS011;59286;59.274;17.974;2022-07-06T05:13:10;5.97;;;1.05;;
71475;SDS011;59286;59.274;17.974;2022-07-06T05:15:36;4.07;;;1.10;;
71475;SDS011;59286;59.274;17.974;2022-07-06T05:18:01;6.78;;;0.90;;
71475;SDS011;59286;59.274;17.974;2022-07-06T05:20:26;4.32;;;1.15;;
71475;SDS011;59286;59.274;17.974;2022-07-06T05:22:52;3.95;;;0.82;;
71475;SDS011;59286;59.274;17.974;2022-07-06T05:25:17;7.13;;;1.20;;
71475;SDS011;59286;59.274;17.974;2022-07-06T05:27:43;3.28;;;0.90;;
71475;SDS011;59286;59.274;17.974;2022-07-06T05:30:09;4.28;;;1.02;;
71475;SDS011;59286;59.274;17.974;2022-07-06T05:32:34;4.60;;;0.90;;
71475;SDS011;59286;59.274;17.974;2022-07-06T05:35:00;6.05;;;0.90;;
71475;SDS011;59286;59.274;17.974;2022-07-06T05:37:25;7.68;;;1.23;;
71475;SDS011;59286;59.274;17.974;2022-07-06T05:39:51;4.88;;;1.05;;
71475;SDS011;59286;59.274;17.974;2022-07-06T05:42:16;5.95;;;1.15;;
71475;SDS011;59286;59.274;17.974;2022-07-06T05:44:42;4.45;;;0.90;;
71475;SDS011;59286;59.274;17.974;2022-07-06T05:47:07;3.55;;;0.98;;
71475;SDS011;59286;59.274;17.974;2022-07-06T05:49:51;4.22;;;1.08;;
71475;SDS011;59286;59.274;17.974;2022-07-06T05:52:35;5.10;;;1.02;;
71475;SDS011;59286;59.274;17.974;2022-07-06T05:55:01;7.50;;;1.30;;
71475;SDS011;59286;59.274;17.974;2022-07-06T05:57:26;3.80;;;1.00;;
71475;SDS011;59286;59.274;17.974;2022-07-06T05:59:51;5.05;;;0.90;;
71475;SDS011;59286;59.274;17.974;2022-07-06T06:02:17;4.35;;;0.85;;
71475;SDS011;59286;59.274;17.974;2022-07-06T06:04:42;6.53;;;0.95;;
71475;SDS011;59286;59.274;17.974;2022-07-06T06:07:08;4.70;;;1.23;;
71475;SDS011;59286;59.274;17.974;2022-07-06T06:09:33;6.03;;;1.00;;
71475;SDS011;59286;59.274;17.974;2022-07-06T06:11:59;5.38;;;1.10;;
71475;SDS011;59286;59.274;17.974;2022-07-06T06:14:24;4.32;;;0.90;;
71475;SDS011;59286;59.274;17.974;2022-07-06T06:16:50;3.63;;;1.02;;
71475;SDS011;59286;59.274;17.974;2022-07-06T06:19:15;6.50;;;1.08;;
71475;SDS011;59286;59.274;17.974;2022-07-06T06:21:41;5.93;;;1.13;;
71475;SDS011;59286;59.274;17.974;2022-07-06T06:24:06;4.72;;;0.98;;
71475;SDS011;59286;59.274;17.974;2022-07-06T06:26:32;3.92;;;1.00;;
71475;SDS011;59286;59.274;17.974;2022-07-06T06:28:58;4.63;;;0.98;;
71475;SDS011;59286;59.274;17.974;2022-07-06T06:31:23;6.80;;;1.00;;
71475;SDS011;59286;59.274;17.974;2022-07-06T06:33:49;3.70;;;0.85;;
71475;SDS011;59286;59.274;17.974;2022-07-06T06:36:14;5.38;;;0.80;;
71475;SDS011;59286;59.274;17.974;2022-07-06T06:38:40;3.28;;;0.98;;
71475;SDS011;59286;59.274;17.974;2022-07-06T06:41:05;3.08;;;0.85;;
71475;SDS011;59286;59.274;17.974;2022-07-06T06:43:31;6.70;;;0.93;;
71475;SDS011;59286;59.274;17.974;2022-07-06T06:45:56;4.90;;;0.82;;
71475;SDS011;59286;59.274;17.974;2022-07-06T06:48:22;4.82;;;1.23;;
71475;SDS011;59286;59.274;17.974;2022-07-06T06:50:47;4.13;;;1.00;;
71475;SDS011;59286;59.274;17.974;2022-07-06T06:53:13;4.55;;;1.10;;
71475;SDS011;59286;59.274;17.974;2022-07-06T06:55:39;7.90;;;1.00;;
71475;SDS011;59286;59.274;17.974;2022-07-06T06:58:04;4.13;;;0.90;;
71475;SDS011;59286;59.274;17.974;2022-07-06T07:00:30;6.55;;;1.20;;
71475;SDS011;59286;59.274;17.974;2022-07-06T07:02:55;4.63;;;0.90;;
71475;SDS011;59286;59.274;17.974;2022-07-06T07:05:21;2.53;;;0.75;;
71475;SDS011;59286;59.274;17.974;2022-07-06T07:07:46;5.30;;;0.80;;
71475;SDS011;59286;59.274;17.974;2022-07-06T07:10:12;4.80;;;1.00;;
71475;SDS011;59286;59.274;17.974;2022-07-06T07:12:46;3.30;;;0.90;;
71475;SDS011;59286;59.274;17.974;2022-07-06T07:15:12;3.67;;;0.93;;
71475;SDS011;59286;59.274;17.974;2022-07-06T07:17:39;5.72;;;1.02;;
71475;SDS011;59286;59.274;17.974;2022-07-06T07:20:05;6.25;;;1.05;;
71475;SDS011;59286;59.274;17.974;2022-07-06T07:22:31;3.72;;;0.88;;
71475;SDS011;59286;59.274;17.974;2022-07-06T07:24:56;4.07;;;0.70;;
71475;SDS011;59286;59.274;17.974;2022-07-06T07:27:23;3.80;;;0.90;;
71475;SDS011;59286;59.274;17.974;2022-07-06T07:29:49;5.50;;;1.05;;
71475;SDS011;59286;59.274;17.974;2022-07-06T07:32:15;3.70;;;0.80;;
71475;SDS011;59286;59.274;17.974;2022-07-06T07:34:40;6.47;;;0.80;;
71475;SDS011;59286;59.274;17.974;2022-07-06T07:37:06;5.68;;;1.25;;
71475;SDS011;59286;59.274;17.974;2022-07-06T07:39:31;4.40;;;0.80;;
71475;SDS011;59286;59.274;17.974;2022-07-06T07:41:57;5.05;;;0.95;;
71475;SDS011;59286;59.274;17.974;2022-07-06T07:44:22;4.93;;;0.90;;
71475;SDS011;59286;59.274;17.974;2022-07-06T07:46:49;4.07;;;0.75;;
71475;SDS011;59286;59.274;17.974;2022-07-06T07:49:17;4.63;;;0.65;;
71475;SDS011;59286;59.274;17.974;2022-07-06T07:51:43;6.40;;;0.90;;
71475;SDS011;59286;59.274;17.974;2022-07-06T07:54:08;3.38;;;0.70;;
71475;SDS011;59286;59.274;17.974;2022-07-06T07:56:33;4.10;;;0.85;;
71475;SDS011;59286;59.274;17.974;2022-07-06T07:58:59;3.47;;;1.05;;
71475;SDS011;59286;59.274;17.974;2022-07-06T08:01:24;3.00;;;0.70;;
71475;SDS011;59286;59.274;17.974;2022-07-06T08:03:50;4.32;;;0.80;;
71475;SDS011;59286;59.274;17.974;2022-07-06T08:06:15;2.67;;;0.63;;
71475;SDS011;59286;59.274;17.974;2022-07-06T08:08:41;2.67;;;0.70;;
71475;SDS011;59286;59.274;17.974;2022-07-06T08:11:06;4.82;;;0.75;;
71475;SDS011;59286;59.274;17.974;2022-07-06T08:13:32;3.35;;;0.75;;
71475;SDS011;59286;59.274;17.974;2022-07-06T08:15:58;2.40;;;0.80;;
71475;SDS011;59286;59.274;17.974;2022-07-06T08:18:25;3.53;;;0.82;;
71475;SDS011;59286;59.274;17.974;2022-07-06T08:20:50;2.55;;;0.80;;
71475;SDS011;59286;59.274;17.974;2022-07-06T08:23:16;2.55;;;0.80;;
71475;SDS011;59286;59.274;17.974;2022-07-06T08:25:41;3.78;;;0.68;;
71475;SDS011;59286;59.274;17.974;2022-07-06T08:28:06;3.22;;;0.60;;
71475;SDS011;59286;59.274;17.974;2022-07-06T08:30:32;3.70;;;0.73;;
71475;SDS011;59286;59.274;17.974;2022-07-06T08:32:59;2.65;;;0.60;;
71475;SDS011;59286;59.274;17.974;2022-07-06T08:35:25;2.65;;;0.80;;
71475;SDS011;59286;59.274;17.974;2022-07-06T08:37:51;5.32;;;1.17;;
71475;SDS011;59286;59.274;17.974;2022-07-06T08:40:16;3.80;;;0.90;;
71475;SDS011;59286;59.274;17.974;2022-07-06T08:42:41;3.63;;;0.80;;
71475;SDS011;59286;59.274;17.974;2022-07-06T08:45:09;3.50;;;1.00;;
71475;SDS011;59286;59.274;17.974;2022-07-06T08:47:37;2.65;;;0.90;;
71475;SDS011;59286;59.274;17.974;2022-07-06T08:50:03;6.03;;;1.00;;
71475;SDS011;59286;59.274;17.974;2022-07-06T08:52:29;7.35;;;0.60;;
71475;SDS011;59286;59.274;17.974;2022-07-06T08:54:56;5.28;;;0.85;;
71475;SDS011;59286;59.274;17.974;2022-07-06T08:57:21;4.80;;;0.70;;
71475;SDS011;59286;59.274;17.974;2022-07-06T08:59:48;1.58;;;0.65;;
71475;SDS011;59286;59.274;17.974;2022-07-06T09:02:13;4.45;;;0.70;;
71475;SDS011;59286;59.274;17.974;2022-07-06T09:04:39;4.10;;;0.95;;
71475;SDS011;59286;59.274;17.974;2022-07-06T09:07:08;4.07;;;0.80;;
71475;SDS011;59286;59.274;17.974;2022-07-06T09:09:33;3.63;;;0.65;;
71475;SDS011;59286;59.274;17.974;2022-07-06T09:12:01;3.00;;;1.02;;
71475;SDS011;59286;59.274;17.974;2022-07-06T09:14:27;4.20;;;0.73;;
71475;SDS011;59286;59.274;17.974;2022-07-06T09:17:04;2.60;;;0.82;;
71475;SDS011;59286;59.274;17.974;2022-07-06T09:19:32;5.47;;;0.70;;
71475;SDS011;59286;59.274;17.974;2022-07-06T09:21:59;3.22;;;0.70;;
71475;SDS011;59286;59.274;17.974;2022-07-06T09:24:25;3.92;;;0.85;;
71475;SDS011;59286;59.274;17.974;2022-07-06T09:26:53;3.05;;;0.80;;
71475;SDS011;59286;59.274;17.974;2022-07-06T09:29:30;3.42;;;0.70;;
71475;SDS011;59286;59.274;17.974;2022-07-06T09:32:00;6.05;;;0.90;;
71475;SDS011;59286;59.274;17.974;2022-07-06T09:34:45;4.10;;;1.00;;
71475;SDS011;59286;59.274;17.974;2022-07-06T09:37:12;2.58;;;0.65;;
71475;SDS011;59286;59.274;17.974;2022-07-06T09:39:38;3.13;;;0.90;;
71475;SDS011;59286;59.274;17.974;2022-07-06T09:42:04;4.15;;;0.80;;
71475;SDS011;59286;59.274;17.974;2022-07-06T09:44:36;4.00;;;0.60;;
71475;SDS011;59286;59.274;17.974;2022-07-06T09:47:06;2.75;;;0.90;;
71475;SDS011;59286;59.274;17.974;2022-07-06T09:49:36;4.15;;;0.82;;
71475;SDS011;59286;59.274;17.974;2022-07-06T09:52:04;3.78;;;1.00;;
71475;SDS011;59286;59.274;17.974;2022-07-06T09:54:30;2.60;;;0.70;;
71475;SDS011;59286;59.274;17.974;2022-07-06T09:56:58;3.75;;;0.80;;
71475;SDS011;59286;59.274;17.974;2022-07-06T09:59:24;3.55;;;0.70;;
71475;SDS011;59286;59.274;17.974;2022-07-06T10:01:52;2.95;;;0.70;;
71475;SDS011;59286;59.274;17.974;2022-07-06T10:04:19;2.28;;;0.65;;
71475;SDS011;59286;59.274;17.974;2022-07-06T10:06:45;2.42;;;0.70;;
71475;SDS011;59286;59.274;17.974;2022-07-06T10:09:12;6.82;;;0.70;;
71475;SDS011;59286;59.274;17.974;2022-07-06T10:11:47;3.65;;;0.68;;
71475;SDS011;59286;59.274;17.974;2022-07-06T10:14:15;7.03;;;1.00;;
71475;SDS011;59286;59.274;17.974;2022-07-06T10:16:43;3.17;;;0.50;;
71475;SDS011;59286;59.274;17.974;2022-07-06T10:19:11;5.85;;;1.10;;
71475;SDS011;59286;59.274;17.974;2022-07-06T10:21:37;4.38;;;0.70;;
71475;SDS011;59286;59.274;17.974;2022-07-06T10:24:05;4.57;;;0.63;;
71475;SDS011;59286;59.274;17.974;2022-07-06T10:26:35;2.65;;;0.43;;
71475;SDS011;59286;59.274;17.974;2022-07-06T10:29:01;4.20;;;0.60;;
71475;SDS011;59286;59.274;17.974;2022-07-06T10:31:28;2.33;;;0.68;;
71475;SDS011;59286;59.274;17.974;2022-07-06T10:34:03;4.03;;;0.65;;
71475;SDS011;59286;59.274;17.974;2022-07-06T10:36:31;2.85;;;0.73;;
71475;SDS011;59286;59.274;17.974;2022-07-06T10:39:01;2.38;;;0.80;;
71475;SDS011;59286;59.274;17.974;2022-07-06T10:41:46;3.50;;;0.70;;
71475;SDS011;59286;59.274;17.974;2022-07-06T10:44:16;3.83;;;0.90;;
71475;SDS011;59286;59.274;17.974;2022-07-06T10:46:49;3.00;;;0.63;;
71475;SDS011;59286;59.274;17.974;2022-07-06T10:49:24;2.78;;;0.63;;
71475;SDS011;59286;59.274;17.974;2022-07-06T10:51:51;2.30;;;0.70;;
71475;SDS011;59286;59.274;17.974;2022-07-06T10:54:17;2.42;;;0.52;;
71475;SDS011;59286;59.274;17.974;2022-07-06T10:56:45;3.45;;;0.77;;
71475;SDS011;59286;59.274;17.974;2022-07-06T11:04:42;4.35;;;0.75;;
71475;SDS011;59286;59.274;17.974;2022-07-06T11:07:10;1.85;;;0.35;;
71475;SDS011;59286;59.274;17.974;2022-07-06T11:09:36;4.22;;;0.80;;
71475;SDS011;59286;59.274;17.974;2022-07-06T11:15:00;2.35;;;0.30;;
71475;SDS011;59286;59.274;17.974;2022-07-06T11:17:27;3.13;;;0.60;;
71475;SDS011;59286;59.274;17.974;2022-07-06T11:19:56;2.20;;;0.43;;
71475;SDS011;59286;59.274;17.974;2022-07-06T11:22:23;4.53;;;0.55;;
71475;SDS011;59286;59.274;17.974;2022-07-06T11:24:51;2.45;;;0.63;;
71475;SDS011;59286;59.274;17.974;2022-07-06T11:27:17;4.97;;;0.50;;
71475;SDS011;59286;59.274;17.974;2022-07-06T11:29:43;3.50;;;0.77;;
71475;SDS011;59286;59.274;17.974;2022-07-06T11:32:10;3.92;;;0.70;;
71475;SDS011;59286;59.274;17.974;2022-07-06T11:34:39;2.20;;;0.70;;
71475;SDS011;59286;59.274;17.974;2022-07-06T11:37:09;4.20;;;0.70;;
71475;SDS011;59286;59.274;17.974;2022-07-06T11:39:38;1.85;;;0.47;;
71475;SDS011;59286;59.274;17.974;2022-07-06T11:42:05;2.58;;;0.40;;
71475;SDS011;59286;59.274;17.974;2022-07-06T11:44:32;2.80;;;0.50;;
71475;SDS011;59286;59.274;17.974;2022-07-06T11:46:59;1.67;;;0.43;;
71475;SDS011;59286;59.274;17.974;2022-07-06T11:49:27;1.40;;;0.70;;
71475;SDS011;59286;59.274;17.974;2022-07-06T11:51:53;0.60;;;0.43;;
71475;SDS011;59286;59.274;17.974;2022-07-06T11:54:19;1.95;;;0.40;;
71475;SDS011;59286;59.274;17.974;2022-07-06T11:56:47;6.63;;;0.30;;
71475;SDS011;59286;59.274;17.974;2022-07-06T11:59:20;2.25;;;0.73;;
71475;SDS011;59286;59.274;17.974;2022-07-06T12:01:58;2.75;;;1.05;;
71475;SDS011;59286;59.274;17.974;2022-07-06T12:04:24;0.60;;;0.30;;
71475;SDS011;59286;59.274;17.974;2022-07-06T12:06:54;1.13;;;0.25;;
71475;SDS011;59286;59.274;17.974;2022-07-06T12:09:20;1.73;;;0.55;;
71475;SDS011;59286;59.274;17.974;2022-07-06T12:11:46;1.95;;;0.77;;
71475;SDS011;59286;59.274;17.974;2022-07-06T12:14:21;1.48;;;0.60;;
71475;SDS011;59286;59.274;17.974;2022-07-06T12:16:48;1.38;;;0.52;;
71475;SDS011;59286;59.274;17.974;2022-07-06T12:19:14;4.35;;;0.70;;
71475;SDS011;59286;59.274;17.974;2022-07-06T12:21:44;4.47;;;1.13;;
71475;SDS011;59286;59.274;17.974;2022-07-06T12:24:17;2.50;;;0.80;;
71475;SDS011;59286;59.274;17.974;2022-07-06T12:26:44;2.15;;;0.98;;
71475;SDS011;59286;59.274;17.974;2022-07-06T12:29:10;5.65;;;1.92;;
71475;SDS011;59286;59.274;17.974;2022-07-06T12:34:13;1.88;;;0.60;;
71475;SDS011;59286;59.274;17.974;2022-07-06T12:36:46;1.40;;;0.40;;
71475;SDS011;59286;59.274;17.974;2022-07-06T12:39:23;5.25;;;0.50;;
71475;SDS011;59286;59.274;17.974;2022-07-06T12:42:03;3.13;;;0.70;;
71475;SDS011;59286;59.274;17.974;2022-07-06T12:44:32;2.80;;;0.70;;
71475;SDS011;59286;59.274;17.974;2022-07-06T12:47:04;3.25;;;0.70;;
71475;SDS011;59286;59.274;17.974;2022-07-06T12:49:32;2.25;;;0.68;;
71475;SDS011;59286;59.274;17.974;2022-07-06T12:52:00;4.65;;;0.60;;
71475;SDS011;59286;59.274;17.974;2022-07-06T12:54:32;2.83;;;0.50;;
71475;SDS011;59286;59.274;17.974;2022-07-06T12:57:04;2.45;;;0.60;;
71475;SDS011;59286;59.274;17.974;2022-07-06T12:59:38;2.38;;;0.70;;
71475;SDS011;59286;59.274;17.974;2022-07-06T13:02:07;4.10;;;0.60;;
71475;SDS011;59286;59.274;17.974;2022-07-06T13:04:35;2.10;;;0.40;;
71475;SDS011;59286;59.274;17.974;2022-07-06T13:07:03;4.10;;;0.50;;
71475;SDS011;59286;59.274;17.974;2022-07-06T13:09:30;2.35;;;0.40;;
71475;SDS011;59286;59.274;17.974;2022-07-06T13:11:55;1.65;;;0.50;;
71475;SDS011;59286;59.274;17.974;2022-07-06T13:14:21;3.25;;;0.38;;
71475;SDS011;59286;59.274;17.974;2022-07-06T13:16:47;5.60;;;1.48;;
71475;SDS011;59286;59.274;17.974;2022-07-06T13:19:13;4.35;;;0.65;;
71475;SDS011;59286;59.274;17.974;2022-07-06T13:21:39;1.80;;;0.30;;
71475;SDS011;59286;59.274;17.974;2022-07-06T13:24:05;2.63;;;0.30;;
71475;SDS011;59286;59.274;17.974;2022-07-06T13:26:31;1.45;;;0.32;;
71475;SDS011;59286;59.274;17.974;2022-07-06T13:28:59;1.48;;;0.40;;
71475;SDS011;59286;59.274;17.974;2022-07-06T13:31:26;1.30;;;0.30;;
71475;SDS011;59286;59.274;17.974;2022-07-06T13:33:52;1.63;;;0.63;;
71475;SDS011;59286;59.274;17.974;2022-07-06T13:36:18;3.10;;;0.70;;
71475;SDS011;59286;59.274;17.974;2022-07-06T13:38:43;2.05;;;0.40;;
71475;SDS011;59286;59.274;17.974;2022-07-06T13:41:09;3.38;;;0.70;;
71475;SDS011;59286;59.274;17.974;2022-07-06T13:43:34;7.35;;;1.38;;
71475;SDS011;59286;59.274;17.974;2022-07-06T13:46:03;8.68;;;1.00;;
71475;SDS011;59286;59.274;17.974;2022-07-06T13:48:30;2.35;;;0.95;;
71475;SDS011;59286;59.274;17.974;2022-07-06T13:50:56;7.35;;;1.08;;
71475;SDS011;59286;59.274;17.974;2022-07-06T13:53:21;3.78;;;1.10;;
71475;SDS011;59286;59.274;17.974;2022-07-06T13:55:47;5.68;;;1.42;;
71475;SDS011;59286;59.274;17.974;2022-07-06T13:58:12;3.85;;;1.17;;
71475;SDS011;59286;59.274;17.974;2022-07-06T14:00:38;8.40;;;1.17;;
71475;SDS011;59286;59.274;17.974;2022-07-06T14:03:04;5.25;;;1.10;;
71475;SDS011;59286;59.274;17.974;2022-07-06T14:05:29;4.13;;;1.10;;
71475;SDS011;59286;59.274;17.974;2022-07-06T14:07:55;3.33;;;0.90;;
71475;SDS011;59286;59.274;17.974;2022-07-06T14:10:21;2.65;;;0.90;;
71475;SDS011;59286;59.274;17.974;2022-07-06T14:12:47;1.67;;;0.80;;
71475;SDS011;59286;59.274;17.974;2022-07-06T14:15:13;2.67;;;0.80;;
71475;SDS011;59286;59.274;17.974;2022-07-06T14:17:39;4.88;;;0.90;;
71475;SDS011;59286;59.274;17.974;2022-07-06T14:20:04;4.13;;;0.82;;
71475;SDS011;59286;59.274;17.974;2022-07-06T14:22:30;1.92;;;0.73;;
71475;SDS011;59286;59.274;17.974;2022-07-06T14:24:56;3.67;;;0.88;;
71475;SDS011;59286;59.274;17.974;2022-07-06T14:27:21;3.67;;;0.90;;
71475;SDS011;59286;59.274;17.974;2022-07-06T14:29:47;1.55;;;0.70;;
71475;SDS011;59286;59.274;17.974;2022-07-06T14:32:12;3.05;;;0.80;;
71475;SDS011;59286;59.274;17.974;2022-07-06T14:34:38;7.60;;;0.82;;
71475;SDS011;59286;59.274;17.974;2022-07-06T14:37:03;2.45;;;0.80;;
71475;SDS011;59286;59.274;17.974;2022-07-06T14:39:29;1.75;;;0.60;;
71475;SDS011;59286;59.274;17.974;2022-07-06T14:41:54;1.67;;;0.50;;